createdAt,value
2023-08-25T00:00:46.925Z,2.93
2023-08-25T00:03:14.169Z,2.80
2023-08-25T00:05:42.213Z,2.70
2023-08-25T00:08:09.491Z,4.10
2023-08-25T00:10:36.834Z,2.63
2023-08-25T00:13:04.193Z,3.03
2023-08-25T00:15:33.789Z,4.97
2023-08-25T00:18:01.422Z,2.73
2023-08-25T00:20:29.969Z,4.13
2023-08-25T00:22:57.271Z,2.87
2023-08-25T00:25:24.536Z,4.23
2023-08-25T00:27:52.131Z,3.50
2023-08-25T00:30:19.680Z,3.17
2023-08-25T00:32:46.999Z,3.40
2023-08-25T00:35:14.112Z,3.50
2023-08-25T00:37:41.567Z,4.57
2023-08-25T00:40:09.741Z,4.07
2023-08-25T00:42:37.099Z,4.03
2023-08-25T00:45:05.181Z,3.60
2023-08-25T00:47:32.827Z,4.60
2023-08-25T00:50:00.620Z,3.30
2023-08-25T00:52:28.155Z,3.73
2023-08-25T00:54:58.107Z,3.63
2023-08-25T00:57:26.101Z,4.40
2023-08-25T00:59:53.660Z,3.20
2023-08-25T01:02:21.332Z,3.87
2023-08-25T01:04:48.532Z,3.20
2023-08-25T01:07:15.789Z,3.23
2023-08-25T01:09:43.754Z,3.43
2023-08-25T01:12:40.989Z,4.00
2023-08-25T01:15:27.625Z,3.27
2023-08-25T01:18:12.704Z,3.43
2023-08-25T01:20:41.691Z,3.67
2023-08-25T01:23:28.821Z,3.30
2023-08-25T01:25:57.413Z,3.63
2023-08-25T01:28:27.397Z,3.43
2023-08-25T01:30:56.774Z,3.70
2023-08-25T01:33:26.180Z,4.00
2023-08-25T01:36:02.088Z,2.83
2023-08-25T01:38:38.821Z,4.30
2023-08-25T01:41:16.216Z,3.70
2023-08-25T01:44:05.081Z,4.07
2023-08-25T01:46:36.429Z,3.67
2023-08-25T01:49:06.198Z,3.33
2023-08-25T01:51:33.999Z,3.63
2023-08-25T01:54:01.205Z,3.00
2023-08-25T01:56:28.309Z,3.37
2023-08-25T01:58:55.547Z,3.13
2023-08-25T02:01:22.749Z,3.60
2023-08-25T02:03:49.954Z,3.07
2023-08-25T02:06:17.390Z,4.10
2023-08-25T02:08:44.658Z,3.10
2023-08-25T02:11:11.795Z,2.97
2023-08-25T02:13:39.164Z,3.20
2023-08-25T02:16:06.627Z,3.37
2023-08-25T02:18:34.034Z,3.37
2023-08-25T02:21:01.273Z,3.70
2023-08-25T02:23:28.805Z,3.80
2023-08-25T02:25:57.263Z,4.00
2023-08-25T02:28:24.474Z,3.47
2023-08-25T02:30:51.729Z,5.30
2023-08-25T02:33:18.929Z,3.43
2023-08-25T02:35:46.490Z,3.50
2023-08-25T02:38:14.154Z,4.80
2023-08-25T02:40:41.424Z,4.67
2023-08-25T02:43:09.391Z,4.47
2023-08-25T02:45:37.985Z,4.00
2023-08-25T02:48:06.009Z,3.60
2023-08-25T02:50:34.849Z,4.27
2023-08-25T02:53:02.091Z,5.13
2023-08-25T02:55:29.265Z,4.23
2023-08-25T02:57:56.922Z,4.40
2023-08-25T03:00:25.010Z,4.67
2023-08-25T03:02:54.243Z,4.33
2023-08-25T03:05:28.274Z,3.97
2023-08-25T03:07:55.932Z,4.77
2023-08-25T03:10:24.374Z,3.40
2023-08-25T03:12:52.377Z,4.57
2023-08-25T03:15:20.203Z,4.17
2023-08-25T03:17:47.629Z,3.60
2023-08-25T03:20:17.528Z,4.43
2023-08-25T03:22:44.664Z,5.03
2023-08-25T03:25:11.726Z,4.40
2023-08-25T03:27:39.431Z,4.00
2023-08-25T03:30:08.118Z,4.17
2023-08-25T03:32:35.485Z,4.30
2023-08-25T03:35:03.125Z,4.47
2023-08-25T03:37:30.503Z,4.90
2023-08-25T03:39:58.024Z,4.50
2023-08-25T03:42:25.214Z,4.20
2023-08-25T03:44:52.413Z,5.43
2023-08-25T03:47:19.658Z,5.60
2023-08-25T03:49:47.138Z,5.40
2023-08-25T03:52:14.511Z,5.23
2023-08-25T03:54:41.629Z,6.47
2023-08-25T03:57:10.196Z,6.10
2023-08-25T03:59:40.533Z,6.63
2023-08-25T04:02:11.014Z,6.13
2023-08-25T04:04:38.933Z,5.83
2023-08-25T04:07:06.137Z,4.87
2023-08-25T04:09:33.422Z,4.07
2023-08-25T04:12:00.681Z,5.90
2023-08-25T04:14:28.038Z,4.33
2023-08-25T04:16:55.370Z,7.83
2023-08-25T04:19:22.945Z,5.80
2023-08-25T04:21:50.672Z,4.90
2023-08-25T04:24:21.011Z,5.40
2023-08-25T04:26:48.460Z,5.43
2023-08-25T04:29:15.695Z,5.70
2023-08-25T04:31:44.809Z,5.93
2023-08-25T04:34:12.741Z,4.13
2023-08-25T04:36:41.143Z,4.87
2023-08-25T04:39:08.816Z,5.07
2023-08-25T04:41:37.718Z,5.47
2023-08-25T04:44:08.061Z,5.43
2023-08-25T04:46:35.437Z,6.37
2023-08-25T04:49:02.633Z,4.90
2023-08-25T04:51:29.827Z,6.67
2023-08-25T04:53:57.107Z,5.67
2023-08-25T04:56:24.646Z,5.03
2023-08-25T04:58:51.908Z,5.07
2023-08-25T05:01:19.308Z,5.53
2023-08-25T05:03:47.292Z,4.57
2023-08-25T05:06:14.922Z,6.70
2023-08-25T05:08:42.155Z,5.80
2023-08-25T05:11:10.671Z,7.73
2023-08-25T05:13:38.330Z,6.30
2023-08-25T05:16:05.981Z,6.93
2023-08-25T05:18:33.492Z,5.57
2023-08-25T05:21:01.801Z,6.90
2023-08-25T05:23:29.548Z,8.53
2023-08-25T05:25:59.500Z,6.83
2023-08-25T05:28:28.152Z,6.87
2023-08-25T05:31:14.377Z,6.27
2023-08-25T05:33:41.542Z,6.97
2023-08-25T05:36:08.845Z,7.23
2023-08-25T05:38:36.013Z,7.30
2023-08-25T05:41:03.258Z,7.53
2023-08-25T05:44:07.904Z,7.37
2023-08-25T05:46:35.478Z,7.07
2023-08-25T05:49:02.847Z,8.13
2023-08-25T05:51:30.195Z,8.37
2023-08-25T05:53:57.505Z,8.07
2023-08-25T05:56:26.763Z,9.67
2023-08-25T05:58:54.257Z,6.63
2023-08-25T06:01:21.788Z,6.77
2023-08-25T06:03:51.705Z,7.63
2023-08-25T06:06:19.132Z,8.83
2023-08-25T06:08:46.406Z,9.13
2023-08-25T06:11:15.127Z,7.33
2023-08-25T06:13:42.462Z,9.00
2023-08-25T06:16:11.127Z,6.57
2023-08-25T06:18:38.952Z,6.57
2023-08-25T06:21:06.163Z,8.23
2023-08-25T06:23:33.401Z,6.83
2023-08-25T06:26:00.601Z,8.43
2023-08-25T06:28:27.877Z,6.63
2023-08-25T06:30:55.715Z,8.43
2023-08-25T06:33:23.122Z,8.30
2023-08-25T06:35:50.947Z,6.37
2023-08-25T06:38:18.176Z,7.70
2023-08-25T06:40:45.745Z,6.03
2023-08-25T06:43:13.008Z,8.50
2023-08-25T06:45:40.506Z,7.10
2023-08-25T06:48:08.138Z,6.67
2023-08-25T06:50:38.897Z,6.40
2023-08-25T06:53:08.103Z,6.03
2023-08-25T06:55:38.577Z,7.67
2023-08-25T06:58:11.691Z,5.63
2023-08-25T07:00:39.693Z,5.37
2023-08-25T07:03:25.726Z,6.43
2023-08-25T07:06:01.292Z,8.07
2023-08-25T07:08:29.127Z,6.57
2023-08-25T07:10:56.981Z,8.90
2023-08-25T07:13:24.877Z,7.40
2023-08-25T07:15:52.702Z,7.13
2023-08-25T07:18:20.531Z,8.33
2023-08-25T07:20:48.495Z,5.77
2023-08-25T07:23:18.297Z,6.73
2023-08-25T07:25:52.456Z,7.23
2023-08-25T07:28:22.896Z,7.63
2023-08-25T07:30:53.400Z,8.17
2023-08-25T07:33:20.884Z,8.13
2023-08-25T07:35:48.292Z,8.37
2023-08-25T07:38:18.965Z,8.10
2023-08-25T07:40:46.227Z,7.00
2023-08-25T07:43:14.166Z,7.50
2023-08-25T07:45:41.594Z,8.47
2023-08-25T07:48:09.856Z,7.63
2023-08-25T07:50:37.194Z,6.73
2023-08-25T07:53:04.822Z,9.57
2023-08-25T07:55:33.703Z,6.93
2023-08-25T07:58:01.075Z,6.47
2023-08-25T08:00:31.724Z,6.20
2023-08-25T08:03:01.565Z,6.17
2023-08-25T08:05:29.486Z,6.67
2023-08-25T08:07:56.960Z,6.27
2023-08-25T08:10:24.580Z,6.67
2023-08-25T08:12:52.250Z,6.63
2023-08-25T08:15:22.934Z,5.70
2023-08-25T08:18:30.269Z,6.67
2023-08-25T08:20:58.264Z,5.97
2023-08-25T08:23:26.199Z,5.90
2023-08-25T08:25:57.090Z,6.27
2023-08-25T08:28:26.580Z,6.20
2023-08-25T08:30:54.079Z,5.37
2023-08-25T08:33:21.362Z,6.00
2023-08-25T08:35:48.726Z,5.67
2023-08-25T08:38:19.200Z,8.03
2023-08-25T08:40:47.587Z,5.67
2023-08-25T08:43:21.870Z,6.53
2023-08-25T08:45:53.625Z,6.60
2023-08-25T08:48:23.216Z,6.93
2023-08-25T08:50:51.417Z,5.53
2023-08-25T08:53:20.147Z,6.17
2023-08-25T08:55:52.850Z,5.80
2023-08-25T09:02:42.682Z,5.90
2023-08-25T09:05:20.275Z,21.20
2023-08-25T09:08:06.175Z,7.07
2023-08-25T09:13:30.888Z,7.40
2023-08-25T09:16:01.136Z,7.80
2023-08-25T09:18:38.009Z,6.87
2023-08-25T09:21:28.495Z,6.53
2023-08-25T09:28:06.761Z,5.90
2023-08-25T09:30:39.976Z,5.40
2023-08-25T09:33:17.026Z,5.07
2023-08-25T09:35:46.212Z,4.17
2023-08-25T09:38:26.202Z,4.53
2023-08-25T09:40:53.954Z,6.93
2023-08-25T09:43:36.540Z,4.97
2023-08-25T09:46:10.593Z,4.83
2023-08-25T09:48:39.241Z,5.10
2023-08-25T09:51:07.663Z,3.70
2023-08-25T09:53:38.229Z,6.37
2023-08-25T09:56:10.033Z,4.70
2023-08-25T09:58:39.757Z,4.43
2023-08-25T10:01:11.377Z,4.80
2023-08-25T10:03:40.359Z,6.30
2023-08-25T10:06:10.279Z,4.80
2023-08-25T10:08:43.422Z,4.57
2023-08-25T10:11:13.095Z,4.47
2023-08-25T10:13:43.096Z,4.20
2023-08-25T10:16:14.241Z,4.50
2023-08-25T10:18:46.859Z,5.03
2023-08-25T10:21:20.265Z,3.47
2023-08-25T10:23:51.512Z,4.80
2023-08-25T10:26:19.946Z,5.47
2023-08-25T10:28:49.324Z,3.03
2023-08-25T10:31:20.808Z,5.13
2023-08-25T10:33:51.912Z,4.13
2023-08-25T10:36:27.378Z,3.43
2023-08-25T10:39:01.273Z,3.70
2023-08-25T10:41:29.769Z,4.23
2023-08-25T10:43:57.713Z,3.37
2023-08-25T10:46:40.100Z,3.60
2023-08-25T10:49:15.660Z,4.17
2023-08-25T10:51:43.468Z,3.20
2023-08-25T10:54:25.133Z,5.73
2023-08-25T10:56:52.809Z,4.07
2023-08-25T10:59:26.162Z,3.67
2023-08-25T11:02:00.183Z,3.33
2023-08-25T11:04:31.634Z,3.30
2023-08-25T11:07:00.845Z,3.00
2023-08-25T11:09:28.168Z,5.57
2023-08-25T11:12:08.290Z,4.80
2023-08-25T11:14:48.429Z,3.27
2023-08-25T11:17:28.021Z,3.60
2023-08-25T11:19:55.880Z,2.73
2023-08-25T11:22:23.367Z,4.00
2023-08-25T11:25:03.587Z,3.53
2023-08-25T11:31:31.865Z,3.77
2023-08-25T11:33:59.475Z,4.10
2023-08-25T11:36:29.997Z,4.07
2023-08-25T11:39:00.742Z,3.73
2023-08-25T11:41:29.780Z,3.63
2023-08-25T11:43:57.554Z,3.97
2023-08-25T11:46:27.813Z,3.57
2023-08-25T11:48:56.798Z,4.33
2023-08-25T11:51:24.709Z,4.00
2023-08-25T11:53:52.534Z,4.20
2023-08-25T11:56:20.959Z,3.90
2023-08-25T11:58:49.730Z,3.60
2023-08-25T12:01:20.143Z,5.23
2023-08-25T12:03:49.171Z,4.20
2023-08-25T12:06:17.278Z,4.50
2023-08-25T12:08:44.891Z,3.93
2023-08-25T12:11:12.401Z,4.37
2023-08-25T12:13:48.115Z,4.90
2023-08-25T12:16:19.797Z,5.43
2023-08-25T12:18:53.298Z,5.37
2023-08-25T12:21:23.765Z,5.80
2023-08-25T12:23:54.270Z,5.47
2023-08-25T12:26:21.895Z,4.57
2023-08-25T12:28:49.340Z,5.37
2023-08-25T12:31:16.989Z,4.83
2023-08-25T12:33:44.729Z,4.80
2023-08-25T12:36:12.350Z,4.87
2023-08-25T12:38:39.927Z,3.77
2023-08-25T12:41:07.516Z,5.20
2023-08-25T12:43:36.877Z,3.70
2023-08-25T12:46:04.404Z,3.80
2023-08-25T12:48:33.746Z,4.07
2023-08-25T12:51:01.651Z,3.57
2023-08-25T12:53:28.934Z,3.80
2023-08-25T12:55:56.440Z,3.20
2023-08-25T12:58:23.648Z,3.10
2023-08-25T13:00:53.353Z,3.27
2023-08-25T13:03:22.536Z,2.80
2023-08-25T13:05:49.988Z,2.90
2023-08-25T13:08:17.755Z,2.83
2023-08-25T13:10:57.937Z,3.93
2023-08-25T13:13:25.375Z,2.13
2023-08-25T13:15:52.700Z,2.20
2023-08-25T13:18:20.179Z,2.30
2023-08-25T13:20:49.177Z,2.70
2023-08-25T13:23:33.231Z,2.63
2023-08-25T13:26:05.318Z,2.23
2023-08-25T13:43:39.925Z,2.73
2023-08-25T13:46:08.670Z,2.53
2023-08-25T13:48:39.728Z,17.07
2023-08-25T13:51:08.253Z,2.97
2023-08-25T13:53:37.678Z,3.10
2023-08-25T13:56:05.951Z,2.60
2023-08-25T13:58:34.153Z,5.30
2023-08-25T14:01:04.289Z,2.80
2023-08-25T14:03:59.436Z,2.70
2023-08-25T14:06:28.018Z,2.20
2023-08-25T14:08:55.542Z,2.80
2023-08-25T14:11:24.700Z,2.73
2023-08-25T14:14:34.337Z,2.97
2023-08-25T14:17:02.158Z,3.00
2023-08-25T14:20:00.776Z,3.33
2023-08-25T14:23:26.851Z,3.17
2023-08-25T14:26:05.014Z,3.27
2023-08-25T14:28:35.149Z,3.47
2023-08-25T14:31:06.823Z,3.27
2023-08-25T14:33:40.651Z,3.80
2023-08-25T14:36:15.475Z,3.77
2023-08-25T14:38:42.917Z,3.53
2023-08-25T14:41:12.626Z,3.37
2023-08-25T14:43:40.656Z,6.97
2023-08-25T14:46:11.065Z,3.20
2023-08-25T14:48:40.850Z,3.40
2023-08-25T14:51:08.452Z,2.97
2023-08-25T14:53:48.578Z,3.53
2023-08-25T14:56:16.070Z,10.33
2023-08-25T14:58:43.451Z,3.50
2023-08-25T15:01:11.000Z,2.53
2023-08-25T15:03:41.383Z,2.90
2023-08-25T15:06:27.183Z,3.03
2023-08-25T15:08:55.491Z,7.23
2023-08-25T15:11:22.925Z,3.30
2023-08-25T15:13:50.717Z,2.40
2023-08-25T15:16:18.586Z,18.77
2023-08-25T15:22:50.140Z,2.20
2023-08-25T15:29:31.136Z,3.13
2023-08-25T15:32:10.162Z,2.30
2023-08-25T15:34:37.910Z,2.47
2023-08-25T15:37:05.624Z,2.50
2023-08-25T15:39:40.074Z,7.77
2023-08-25T15:42:08.244Z,1.90
2023-08-25T15:44:46.506Z,3.33
2023-08-25T15:47:44.111Z,7.47
2023-08-25T15:50:15.311Z,2.73
2023-08-25T15:52:45.674Z,2.63
2023-08-25T15:55:16.723Z,2.90
2023-08-25T15:58:04.036Z,2.27
2023-08-25T16:00:41.227Z,2.27
2023-08-25T16:03:10.140Z,2.60
2023-08-25T16:05:56.901Z,3.00
2023-08-25T16:08:55.706Z,2.70
2023-08-25T16:11:39.000Z,3.53
2023-08-25T16:14:13.765Z,3.43
2023-08-25T16:17:23.327Z,4.43
2023-08-25T16:20:10.068Z,4.70
2023-08-25T16:23:03.215Z,3.93
2023-08-25T16:25:55.324Z,5.90
2023-08-25T16:28:34.778Z,6.40
2023-08-25T16:31:41.779Z,5.37
2023-08-25T16:34:44.693Z,7.07
2023-08-25T16:37:15.618Z,10.83
2023-08-25T16:39:58.325Z,7.17
2023-08-25T16:45:55.660Z,8.47
2023-08-25T16:48:53.577Z,6.80
2023-08-25T16:51:22.438Z,8.03
2023-08-25T16:54:42.448Z,8.83
2023-08-25T16:57:38.449Z,9.80
2023-08-25T17:00:07.309Z,9.87
2023-08-25T17:02:36.944Z,10.00
2023-08-25T17:05:13.320Z,10.77
2023-08-25T17:08:13.968Z,11.10
2023-08-25T17:11:00.830Z,11.40
2023-08-25T17:13:45.908Z,15.63
2023-08-25T17:16:29.430Z,11.47
2023-08-25T17:18:59.620Z,10.33
2023-08-25T17:21:36.765Z,10.77
2023-08-25T17:24:29.979Z,9.60
2023-08-25T17:26:58.851Z,11.43
2023-08-25T17:29:26.437Z,11.13
2023-08-25T17:31:56.283Z,10.67
2023-08-25T17:34:23.756Z,9.93
2023-08-25T17:36:53.534Z,10.37
2023-08-25T17:39:22.501Z,10.17
2023-08-25T17:41:54.560Z,9.40
2023-08-25T17:52:35.158Z,12.47
2023-08-25T17:55:04.340Z,14.87
2023-08-25T17:57:33.542Z,15.73
2023-08-25T18:00:01.043Z,16.97
2023-08-25T18:02:28.542Z,17.37
2023-08-25T18:04:56.282Z,16.20
2023-08-25T18:07:24.045Z,16.83
2023-08-25T18:09:51.932Z,17.27
2023-08-25T18:12:22.313Z,15.90
2023-08-25T18:14:50.147Z,16.33
2023-08-25T18:17:17.441Z,15.27
2023-08-25T18:19:44.907Z,17.23
2023-08-25T18:22:14.263Z,17.27
2023-08-25T18:24:41.596Z,16.03
2023-08-25T18:27:09.064Z,16.20
2023-08-25T18:29:36.405Z,16.77
2023-08-25T18:32:03.963Z,17.90
2023-08-25T18:34:31.284Z,15.27
2023-08-25T18:36:59.255Z,15.77
2023-08-25T18:39:26.618Z,14.33
2023-08-25T18:41:53.959Z,15.57
2023-08-25T18:44:21.430Z,17.23
2023-08-25T18:46:49.237Z,17.00
2023-08-25T18:49:16.530Z,14.70
2023-08-25T18:51:47.158Z,18.67
2023-08-25T18:54:14.698Z,15.60
2023-08-25T18:56:42.279Z,16.33
2023-08-25T18:59:09.955Z,16.20
2023-08-25T19:01:37.339Z,17.73
2023-08-25T19:04:05.113Z,17.80
2023-08-25T19:06:32.429Z,16.87
2023-08-25T19:09:00.302Z,16.53
2023-08-25T19:11:28.234Z,13.50
2023-08-25T19:13:55.557Z,15.37
2023-08-25T19:16:23.021Z,18.27
2023-08-25T19:18:50.631Z,17.63
2023-08-25T19:21:18.387Z,15.53
2023-08-25T19:23:46.253Z,17.67
2023-08-25T19:30:13.675Z,18.73
2023-08-25T19:32:41.962Z,18.63
2023-08-25T19:35:10.117Z,16.43
2023-08-25T19:37:37.679Z,20.03
2023-08-25T19:40:11.771Z,18.87
2023-08-25T19:42:39.370Z,18.73
2023-08-25T19:45:08.674Z,18.90
2023-08-25T19:47:36.067Z,17.83
2023-08-25T19:50:03.951Z,18.50
2023-08-25T19:52:31.357Z,20.23
2023-08-25T19:54:59.085Z,21.00
2023-08-25T19:57:26.568Z,19.13
2023-08-25T19:59:56.698Z,18.87
2023-08-25T20:02:24.734Z,18.33
2023-08-25T20:08:51.794Z,15.83
2023-08-25T20:11:21.341Z,19.87
2023-08-25T20:13:48.818Z,16.43
2023-08-25T20:16:17.171Z,19.13
2023-08-25T20:18:44.539Z,23.17
2023-08-25T20:21:14.024Z,17.43
2023-08-25T20:23:41.429Z,19.67
2023-08-25T20:26:09.889Z,20.50
2023-08-25T20:32:47.301Z,20.23
2023-08-25T20:39:57.079Z,19.10
2023-08-25T20:46:27.070Z,18.77
2023-08-25T20:48:54.806Z,20.07
2023-08-25T20:55:33.186Z,18.90
2023-08-25T20:58:00.996Z,20.40
2023-08-25T21:00:29.016Z,21.97
2023-08-25T21:03:00.106Z,19.83
2023-08-25T21:05:27.750Z,22.67
2023-08-25T21:07:55.009Z,24.50
2023-08-25T21:10:23.782Z,22.80
2023-08-25T21:17:02.204Z,21.03
2023-08-25T21:19:29.523Z,24.87
2023-08-25T21:21:59.702Z,23.40
2023-08-25T21:24:27.238Z,23.80
2023-08-25T21:26:55.423Z,25.13
2023-08-25T21:29:22.919Z,21.57
2023-08-25T21:31:51.316Z,23.57
2023-08-25T21:34:26.383Z,22.97
2023-08-25T21:36:58.150Z,21.20
2023-08-25T21:39:37.455Z,19.53
2023-08-25T21:42:08.900Z,19.77
2023-08-25T21:44:36.749Z,18.90
2023-08-25T21:47:07.782Z,18.93
2023-08-25T21:53:48.083Z,14.07
2023-08-25T21:56:15.410Z,14.13
2023-08-25T21:58:43.219Z,14.03
2023-08-25T22:01:11.353Z,14.20
2023-08-25T22:03:39.309Z,12.53
2023-08-25T22:06:06.696Z,13.23
2023-08-25T22:08:36.063Z,12.43
2023-08-25T22:11:24.759Z,13.43
2023-08-25T22:13:52.216Z,14.37
2023-08-25T22:16:19.864Z,15.27
2023-08-25T22:22:57.753Z,10.87
2023-08-25T22:25:25.424Z,14.70
2023-08-25T22:27:55.388Z,14.10
2023-08-25T22:30:23.042Z,13.60
2023-08-25T22:35:22.941Z,12.40
2023-08-25T22:38:09.911Z,15.77
2023-08-25T22:40:37.509Z,14.93
2023-08-25T22:43:13.212Z,14.23
2023-08-25T22:45:40.770Z,16.47
2023-08-25T22:48:08.523Z,16.37
2023-08-25T22:50:35.807Z,15.03
2023-08-25T22:53:03.144Z,13.17
2023-08-25T22:55:30.476Z,13.83
2023-08-25T22:57:57.762Z,13.57
2023-08-25T23:00:28.338Z,14.70
2023-08-25T23:02:56.913Z,13.57
2023-08-25T23:05:24.736Z,14.17
2023-08-25T23:07:52.044Z,13.70
2023-08-25T23:10:20.833Z,13.73
2023-08-25T23:12:48.336Z,14.67
2023-08-25T23:15:15.587Z,14.80
2023-08-25T23:17:42.779Z,12.20
2023-08-25T23:20:11.310Z,13.63
2023-08-25T23:22:38.756Z,13.07
2023-08-25T23:25:06.674Z,13.00
2023-08-25T23:27:33.878Z,14.47
2023-08-25T23:30:08.430Z,12.90
2023-08-25T23:32:35.948Z,14.67
2023-08-25T23:35:03.536Z,14.03
2023-08-25T23:37:30.936Z,13.40
2023-08-25T23:40:05.224Z,14.77
2023-08-25T23:42:32.551Z,15.87
2023-08-25T23:44:59.821Z,15.10
2023-08-25T23:47:27.426Z,15.13
2023-08-25T23:49:57.844Z,14.63
2023-08-25T23:52:28.013Z,14.23
2023-08-25T23:54:58.146Z,15.33
2023-08-25T23:57:33.985Z,14.77
